createdAt,value
2023-05-24T04:31:33.161Z,59.7048
2023-05-24T04:32:35.000Z,59.4717
2023-05-24T04:33:37.036Z,58.9022
2023-05-24T04:34:39.164Z,58.1466
2023-05-24T04:35:41.114Z,57.3959
2023-05-24T04:36:43.148Z,56.7136
2023-05-24T04:37:45.217Z,56.1393
2023-05-24T04:38:47.278Z,55.9101
2023-05-24T04:39:49.379Z,55.4671
2023-05-24T04:40:51.345Z,55.9136
2023-05-24T04:41:53.407Z,55.1931
2023-05-24T04:42:55.420Z,54.8153
2023-05-24T04:43:57.449Z,54.6991
2023-05-24T04:44:59.514Z,54.1782
2023-05-24T04:46:01.559Z,53.7730
2023-05-24T04:47:03.687Z,53.6034
2023-05-24T04:48:05.696Z,53.3019
2023-05-24T04:49:07.673Z,53.1102
2023-05-24T04:50:09.761Z,52.8892
2023-05-24T04:51:11.781Z,52.6400
2023-05-24T04:52:13.838Z,52.5146
2023-05-24T04:53:15.871Z,52.4654
2023-05-24T04:54:17.914Z,52.2980
2023-05-24T04:55:19.949Z,52.1725
2023-05-24T04:56:21.989Z,52.1202
2023-05-24T04:57:24.035Z,51.9270
2023-05-24T04:58:26.087Z,51.9916
2023-05-24T04:59:28.111Z,51.9868
2023-05-24T05:00:30.174Z,52.0205
2023-05-24T05:01:32.222Z,51.9042
2023-05-24T05:02:34.301Z,51.7877
2023-05-24T05:03:36.412Z,51.7210
2023-05-24T05:04:38.326Z,51.6915
2023-05-24T05:05:40.376Z,51.6443
2023-05-24T05:06:42.442Z,51.6662
2023-05-24T05:07:44.496Z,51.6253
2023-05-24T05:08:46.519Z,51.5548
2023-05-24T05:09:48.588Z,51.4723
2023-05-24T05:10:50.633Z,51.4086
2023-05-24T05:11:52.672Z,51.4258
2023-05-24T05:12:54.706Z,51.5434
2023-05-24T05:13:56.798Z,51.7631
2023-05-24T05:14:58.796Z,53.3342
2023-05-24T05:16:00.882Z,53.6406
2023-05-24T05:17:02.912Z,53.3225
2023-05-24T05:18:04.991Z,53.2059
2023-05-24T05:19:07.007Z,53.0357
2023-05-24T05:20:09.133Z,53.3068
2023-05-24T05:21:11.070Z,52.6653
2023-05-24T05:22:13.114Z,52.4926
2023-05-24T05:23:15.287Z,52.2873
2023-05-24T05:24:17.243Z,52.3255
2023-05-24T05:25:19.277Z,52.1983
2023-05-24T05:26:21.313Z,52.1407
2023-05-24T05:27:23.355Z,52.1355
2023-05-24T05:28:25.398Z,52.0204
2023-05-24T05:29:27.424Z,52.0428
2023-05-24T05:30:29.513Z,52.0409
2023-05-24T05:31:31.538Z,51.9466
2023-05-24T05:32:33.633Z,51.8891
2023-05-24T05:33:35.643Z,51.8046
2023-05-24T05:34:37.671Z,51.7505
2023-05-24T05:35:39.718Z,51.7457
2023-05-24T05:36:41.754Z,51.8817
2023-05-24T05:37:43.852Z,52.0929
2023-05-24T05:38:45.830Z,52.0613
2023-05-24T05:39:47.913Z,52.1879
2023-05-24T05:40:49.949Z,52.1364
2023-05-24T05:41:51.987Z,52.0985
2023-05-24T05:42:54.025Z,51.9965
2023-05-24T05:43:56.347Z,51.9215
2023-05-24T05:44:58.166Z,51.9016
2023-05-24T05:46:00.230Z,51.8030
2023-05-24T05:47:02.254Z,51.8410
2023-05-24T05:48:04.334Z,51.8065
2023-05-24T05:49:06.398Z,51.8924
2023-05-24T05:50:08.406Z,51.8030
2023-05-24T05:51:10.450Z,51.7526
2023-05-24T05:52:12.482Z,51.9729
2023-05-24T05:53:14.523Z,51.7318
2023-05-24T05:54:16.601Z,51.9666
2023-05-24T05:55:18.594Z,52.2751
2023-05-24T05:56:20.647Z,52.4188
2023-05-24T05:57:22.753Z,52.9076
2023-05-24T05:58:24.757Z,52.3990
2023-05-24T05:59:26.804Z,52.2914
2023-05-24T06:00:28.957Z,52.1221
2023-05-24T06:01:30.866Z,52.5437
2023-05-24T06:02:32.970Z,52.2746
2023-05-24T06:03:35.200Z,52.5693
2023-05-24T06:04:37.059Z,52.8588
2023-05-24T06:05:39.063Z,52.9075
2023-05-24T06:06:41.154Z,52.7612
2023-05-24T06:07:43.165Z,53.0563
2023-05-24T06:08:45.282Z,53.3343
2023-05-24T06:09:47.310Z,53.2304
2023-05-24T06:10:52.039Z,53.2698
2023-05-24T06:11:51.389Z,53.4990
2023-05-24T06:12:53.473Z,53.7284
2023-05-24T06:13:55.457Z,53.5200
2023-05-24T06:14:57.561Z,53.3606
2023-05-24T06:15:59.566Z,53.9498
2023-05-24T06:17:01.690Z,53.4405
2023-05-24T06:18:03.819Z,53.5687
2023-05-24T06:19:06.603Z,53.7267
2023-05-24T06:20:07.764Z,54.0892
2023-05-24T06:21:09.807Z,53.7565
2023-05-24T06:22:11.807Z,53.9605
2023-05-24T06:23:14.016Z,54.2915
2023-05-24T06:24:15.901Z,54.2741
2023-05-24T06:25:18.008Z,54.2977
2023-05-24T06:26:20.002Z,54.7037
2023-05-24T06:27:22.151Z,55.1206
2023-05-24T06:28:24.080Z,54.8125
2023-05-24T06:29:26.154Z,54.7801
2023-05-24T06:30:28.385Z,55.0536
2023-05-24T06:31:30.221Z,54.8243
2023-05-24T06:32:32.380Z,54.4965
2023-05-24T06:33:35.766Z,54.3634
2023-05-24T06:34:36.371Z,54.4533
2023-05-24T06:35:38.413Z,54.5539
2023-05-24T06:36:40.465Z,54.4764
2023-05-24T06:37:42.497Z,54.1810
2023-05-24T06:38:44.514Z,54.2096
2023-05-24T06:39:46.626Z,54.0032
2023-05-24T06:40:48.605Z,54.0027
2023-05-24T06:41:50.659Z,54.0676
2023-05-24T06:42:52.736Z,53.9523
2023-05-24T06:43:54.772Z,53.6249
2023-05-24T06:44:56.841Z,53.6741
2023-05-24T06:45:58.884Z,53.9447
2023-05-24T06:47:01.007Z,53.3508
2023-05-24T06:48:05.024Z,53.3386
2023-05-24T06:49:05.054Z,53.6303
2023-05-24T06:50:07.033Z,53.3410
2023-05-24T06:51:09.091Z,53.5939
2023-05-24T06:52:11.130Z,53.6258
2023-05-24T06:53:13.236Z,53.8199
2023-05-24T06:54:15.243Z,53.7845
2023-05-24T06:55:17.254Z,53.6017
2023-05-24T06:56:19.322Z,53.8072
2023-05-24T06:57:21.355Z,54.0734
2023-05-24T06:58:23.392Z,53.7661
2023-05-24T06:59:25.473Z,53.6991
2023-05-24T07:00:27.583Z,53.8878
2023-05-24T07:01:29.671Z,53.8954
2023-05-24T07:02:31.622Z,54.0836
2023-05-24T07:03:33.642Z,53.7957
2023-05-24T07:04:37.532Z,54.2245
2023-05-24T07:05:37.719Z,54.3739
2023-05-24T07:06:39.829Z,53.8741
2023-05-24T07:07:41.817Z,53.7223
2023-05-24T07:08:43.833Z,53.8456
2023-05-24T07:09:45.896Z,54.1218
2023-05-24T07:10:48.119Z,54.4661
2023-05-24T07:11:50.020Z,55.1172
2023-05-24T07:12:52.016Z,55.0799
2023-05-24T07:13:54.076Z,55.3087
2023-05-24T07:14:56.120Z,55.2350
2023-05-24T07:15:58.158Z,54.5402
2023-05-24T07:17:00.340Z,54.3707
2023-05-24T07:18:02.342Z,54.8240
2023-05-24T07:19:04.949Z,54.7854
2023-05-24T07:20:06.359Z,54.5173
2023-05-24T07:21:08.404Z,54.7011
2023-05-24T07:22:10.496Z,54.7834
2023-05-24T07:23:12.552Z,54.6106
2023-05-24T07:24:16.229Z,54.3854
2023-05-24T07:25:16.581Z,54.3882
2023-05-24T07:26:18.644Z,54.1208
2023-05-24T07:27:20.650Z,53.9166
2023-05-24T07:28:22.741Z,53.8094
2023-05-24T07:29:24.981Z,53.8497
2023-05-24T07:30:32.301Z,53.5465
2023-05-24T07:31:28.870Z,53.4649
2023-05-24T07:32:30.990Z,53.2421
2023-05-24T07:33:33.040Z,53.2826
2023-05-24T07:34:35.027Z,53.6792
2023-05-24T07:35:37.087Z,53.6146
2023-05-24T07:36:39.301Z,53.1246
2023-05-24T07:37:41.228Z,52.8608
2023-05-24T07:38:43.328Z,52.8529
2023-05-24T07:39:45.224Z,52.9590
2023-05-24T07:40:47.340Z,52.9489
2023-05-24T07:41:49.330Z,52.8922
2023-05-24T07:42:51.416Z,53.1358
2023-05-24T07:43:53.478Z,53.2144
2023-05-24T07:44:55.549Z,53.2900
2023-05-24T07:45:57.522Z,53.2584
2023-05-24T07:46:59.731Z,52.9452
2023-05-24T07:48:01.861Z,52.9292
2023-05-24T07:49:03.673Z,52.9915
2023-05-24T07:50:06.065Z,53.0972
2023-05-24T07:51:08.059Z,52.8609
2023-05-24T07:52:09.784Z,52.7225
2023-05-24T07:53:11.853Z,52.7695
2023-05-24T07:54:13.894Z,53.0688
2023-05-24T07:55:15.940Z,53.0832
2023-05-24T07:56:17.953Z,53.1787
2023-05-24T07:57:20.035Z,52.9955
2023-05-24T07:58:22.093Z,53.0760
2023-05-24T07:59:24.106Z,52.9569
2023-05-24T08:00:26.259Z,52.7785
2023-05-24T08:01:28.213Z,52.9148
2023-05-24T08:02:30.439Z,53.0324
2023-05-24T08:03:32.379Z,52.9458
2023-05-24T08:04:34.367Z,53.3231
2023-05-24T08:05:36.562Z,53.4859
2023-05-24T08:06:38.496Z,53.4536
2023-05-24T08:07:40.469Z,53.2140
2023-05-24T08:08:42.555Z,53.0865
2023-05-24T08:09:44.651Z,53.2323
2023-05-24T08:10:46.604Z,53.5411
2023-05-24T08:11:48.664Z,53.4930
2023-05-24T08:12:50.667Z,53.5988
2023-05-24T08:13:52.721Z,53.8949
2023-05-24T08:14:55.272Z,54.1039
2023-05-24T08:15:56.879Z,54.0681
2023-05-24T08:16:58.887Z,53.9233
2023-05-24T08:18:00.973Z,53.7433
2023-05-24T08:19:03.017Z,53.7561
2023-05-24T08:20:05.084Z,53.3164
2023-05-24T08:21:07.035Z,53.4998
2023-05-24T08:22:09.239Z,53.4798
2023-05-24T08:23:11.351Z,53.2826
2023-05-24T08:24:13.186Z,53.8142
2023-05-24T08:25:16.974Z,54.1721
2023-05-24T08:26:17.486Z,54.3146
2023-05-24T08:27:19.314Z,54.2526
2023-05-24T08:28:21.484Z,54.3610
2023-05-24T08:29:23.423Z,54.2463
2023-05-24T08:30:25.734Z,54.3942
2023-05-24T08:31:27.564Z,54.3691
2023-05-24T08:32:29.587Z,54.4022
2023-05-24T08:33:31.630Z,54.2532
2023-05-24T08:34:33.747Z,53.8945
2023-05-24T08:35:35.776Z,53.8419
2023-05-24T08:36:37.831Z,53.8683
2023-05-24T08:37:39.955Z,53.8533
2023-05-24T08:38:41.927Z,53.3103
2023-05-24T08:39:44.120Z,53.5079
2023-05-24T08:40:46.076Z,53.0966
2023-05-24T08:42:01.026Z,53.4127
2023-05-24T08:42:50.151Z,53.3641
2023-05-24T08:43:52.185Z,53.0469
2023-05-24T08:44:54.205Z,53.0921
2023-05-24T08:45:56.282Z,52.8693
2023-05-24T08:46:58.369Z,52.7590
2023-05-24T08:48:00.463Z,52.4732
2023-05-24T08:49:02.548Z,52.1725
2023-05-24T08:50:04.499Z,52.2747
2023-05-24T08:51:06.630Z,51.9648
2023-05-24T08:52:08.642Z,51.8482
2023-05-24T08:53:10.573Z,52.2652
2023-05-24T08:54:12.662Z,52.4636
2023-05-24T08:55:14.680Z,52.0794
2023-05-24T08:56:16.780Z,52.1151
2023-05-24T08:57:18.756Z,52.0283
2023-05-24T08:58:20.838Z,52.1116
2023-05-24T08:59:22.856Z,52.1658
2023-05-24T09:00:24.931Z,52.2697
2023-05-24T09:01:28.953Z,52.0638
2023-05-24T09:02:29.007Z,52.4616
2023-05-24T09:03:31.148Z,52.4832
2023-05-24T09:04:33.109Z,52.5085
2023-05-24T09:05:35.168Z,52.4091
2023-05-24T09:06:37.191Z,52.3690
2023-05-24T09:07:39.259Z,52.1659
2023-05-24T09:08:43.628Z,52.1653
2023-05-24T09:09:43.323Z,51.9097
2023-05-24T09:10:54.554Z,51.7445
2023-05-24T09:11:47.423Z,51.8122
2023-05-24T09:12:49.470Z,52.2212
2023-05-24T09:13:51.488Z,52.3349
2023-05-24T09:14:53.621Z,52.3266
2023-05-24T09:15:55.661Z,54.5445
2023-05-24T09:16:57.665Z,52.7111
2023-05-24T09:17:59.702Z,52.3737
2023-05-24T09:19:01.747Z,52.2731
2023-05-24T09:20:03.856Z,52.3769
2023-05-24T09:21:05.866Z,52.5966
2023-05-24T09:22:08.202Z,52.3839
2023-05-24T09:23:10.032Z,52.6116
2023-05-24T09:24:11.995Z,52.3104
2023-05-24T09:25:14.083Z,51.9425
2023-05-24T09:26:16.120Z,52.0944
2023-05-24T09:27:18.122Z,52.1415
2023-05-24T09:28:20.167Z,51.5924
2023-05-24T09:29:22.359Z,51.5138
2023-05-24T09:30:24.279Z,51.7371
2023-05-24T09:31:26.344Z,51.7260
2023-05-24T09:32:28.437Z,51.6217
2023-05-24T09:33:30.393Z,51.4295
2023-05-24T09:34:32.407Z,51.3531
2023-05-24T09:35:34.645Z,51.1513
2023-05-24T09:36:36.545Z,51.2546
2023-05-24T09:37:38.757Z,51.1163
2023-05-24T09:38:40.691Z,50.9327
2023-05-24T09:39:42.701Z,50.9959
2023-05-24T09:40:44.727Z,51.0514
2023-05-24T09:41:46.910Z,51.1559
2023-05-24T09:42:49.834Z,51.2112
2023-05-24T09:43:50.896Z,51.3342
2023-05-24T09:44:53.184Z,51.5388
2023-05-24T09:45:54.960Z,51.5005
2023-05-24T09:46:57.027Z,51.2866
2023-05-24T09:47:59.137Z,50.8656
2023-05-24T09:49:01.081Z,50.8560
2023-05-24T09:50:03.165Z,51.1211
2023-05-24T09:51:05.196Z,51.0237
2023-05-24T09:52:07.305Z,50.9454
2023-05-24T09:53:09.289Z,50.9203
2023-05-24T09:54:11.296Z,51.0796
2023-05-24T09:55:13.366Z,51.3298
2023-05-24T09:56:15.430Z,51.2889
2023-05-24T09:57:17.427Z,51.4032
2023-05-24T09:58:19.484Z,51.4251
2023-05-24T09:59:21.553Z,51.3578
2023-05-24T10:00:23.658Z,51.4943
2023-05-24T10:01:25.688Z,51.7878
2023-05-24T10:02:31.369Z,51.4626
2023-05-24T10:03:29.864Z,51.2410
2023-05-24T10:04:31.861Z,51.3579
2023-05-24T10:05:33.938Z,51.2981
2023-05-24T10:06:35.871Z,51.0847
2023-05-24T10:07:37.903Z,50.8239
2023-05-24T10:08:40.046Z,50.4095
2023-05-24T10:09:42.022Z,50.2631
2023-05-24T10:10:44.456Z,50.4399
2023-05-24T10:11:46.275Z,50.4362
2023-05-24T10:12:48.322Z,50.5888
2023-05-24T10:13:50.214Z,50.6148
2023-05-24T10:14:52.330Z,50.6191
2023-05-24T10:15:54.407Z,50.3537
2023-05-24T10:16:56.389Z,50.4007
2023-05-24T10:17:58.583Z,50.4447
2023-05-24T10:19:00.447Z,50.6407
2023-05-24T10:20:02.556Z,50.5043
2023-05-24T10:21:04.762Z,50.5446
2023-05-24T10:22:06.592Z,50.5422
2023-05-24T10:23:08.628Z,50.3932
2023-05-24T10:24:10.733Z,50.5733
2023-05-24T10:25:12.835Z,50.5347
2023-05-24T10:26:14.833Z,50.4109
2023-05-24T10:27:16.967Z,50.4495
2023-05-24T10:28:18.923Z,50.4988
2023-05-24T10:29:20.938Z,50.8890
2023-05-24T10:30:23.005Z,51.0253
2023-05-24T10:31:25.127Z,51.1413
2023-05-24T10:32:27.203Z,51.0356
2023-05-24T10:33:29.166Z,51.1939
2023-05-24T10:34:31.232Z,51.2979
2023-05-24T10:35:33.246Z,50.9965
2023-05-24T10:36:35.308Z,50.6746
2023-05-24T10:37:38.010Z,50.3817
2023-05-24T10:38:39.434Z,50.9704
2023-05-24T10:39:41.475Z,51.0099
2023-05-24T10:40:43.503Z,51.2278
2023-05-24T10:41:45.608Z,51.3153
2023-05-24T10:42:47.685Z,51.2106
2023-05-24T10:44:07.301Z,51.3200
2023-05-24T10:44:51.743Z,50.8098
2023-05-24T10:45:53.838Z,50.6019
2023-05-24T10:46:55.876Z,50.9903
2023-05-24T10:47:57.907Z,50.0144
2023-05-24T10:48:59.931Z,49.4304
2023-05-24T10:50:02.008Z,49.5214
2023-05-24T10:51:04.210Z,49.7876
2023-05-24T10:52:06.062Z,49.9879
2023-05-24T10:53:08.119Z,50.0717
2023-05-24T10:54:10.191Z,49.6246
2023-05-24T10:55:12.241Z,50.0624
2023-05-24T10:56:14.290Z,49.5868
2023-05-24T10:57:16.350Z,50.0044
2023-05-24T10:58:18.372Z,50.5657
2023-05-24T10:59:20.416Z,50.1861
2023-05-24T11:00:33.683Z,49.3193
2023-05-24T11:01:24.593Z,49.2967
2023-05-24T11:02:26.650Z,49.0938
2023-05-24T11:03:28.923Z,48.6745
2023-05-24T11:04:30.700Z,48.8292
2023-05-24T11:05:32.751Z,49.0228
2023-05-24T11:06:34.811Z,49.0157
2023-05-24T11:07:36.854Z,49.1660
2023-05-24T11:08:38.921Z,49.9874
2023-05-24T11:09:40.944Z,49.4867
2023-05-24T11:10:43.380Z,48.9472
2023-05-24T11:11:45.023Z,48.8870
2023-05-24T11:12:47.125Z,49.3146
2023-05-24T11:13:49.153Z,49.3992
2023-05-24T11:14:51.231Z,49.3525
2023-05-24T11:15:53.281Z,48.9288
2023-05-24T11:16:55.385Z,48.6155
2023-05-24T11:17:57.522Z,48.6398
2023-05-24T11:18:59.408Z,48.6176
2023-05-24T11:20:01.511Z,48.5216
2023-05-24T11:21:04.097Z,48.4879
2023-05-24T11:22:05.561Z,48.3517
2023-05-24T11:23:07.593Z,48.3806
2023-05-24T11:24:09.768Z,48.4724
2023-05-24T11:25:11.692Z,48.5049
2023-05-24T11:26:13.775Z,48.6588
2023-05-24T11:27:15.810Z,48.9045
2023-05-24T11:28:17.900Z,49.0028
2023-05-24T11:29:19.911Z,48.9561
2023-05-24T11:30:21.935Z,48.9425
2023-05-24T11:31:24.035Z,48.8023
2023-05-24T11:32:26.151Z,48.7114
2023-05-24T11:33:28.097Z,48.9547
2023-05-24T11:34:30.116Z,49.1736
2023-05-24T11:35:32.197Z,49.2645
2023-05-24T11:36:34.235Z,49.4297
2023-05-24T11:37:46.135Z,49.2856
2023-05-24T11:38:38.318Z,49.3109
2023-05-24T11:39:40.399Z,49.4781
2023-05-24T11:40:42.675Z,49.4072
2023-05-24T11:41:44.513Z,49.6358
2023-05-24T11:42:46.548Z,49.5560
2023-05-24T11:43:48.603Z,49.4554
2023-05-24T11:44:51.017Z,49.3158
2023-05-24T11:45:52.802Z,49.5713
2023-05-24T11:46:54.781Z,49.3324
2023-05-24T11:47:56.854Z,49.3935
2023-05-24T11:48:58.804Z,49.6411
2023-05-24T11:50:00.847Z,49.8474
2023-05-24T11:51:02.895Z,49.9982
2023-05-24T11:52:04.966Z,50.3516
2023-05-24T11:53:07.027Z,50.4261
2023-05-24T11:54:09.052Z,50.0285
2023-05-24T11:55:11.115Z,50.1069
2023-05-24T11:56:13.136Z,49.8292
2023-05-24T11:57:15.164Z,50.0463
2023-05-24T11:58:17.253Z,50.0178
2023-05-24T11:59:19.279Z,49.8515
2023-05-24T12:00:21.526Z,49.7681
2023-05-24T12:01:23.584Z,49.8015
2023-05-24T12:02:25.443Z,49.6935
2023-05-24T12:03:27.618Z,49.5797
2023-05-24T12:04:29.742Z,49.4679
2023-05-24T12:05:31.558Z,49.6483
2023-05-24T12:06:33.597Z,49.9790
2023-05-24T12:07:35.690Z,50.2468
2023-05-24T12:08:37.678Z,50.2144
2023-05-24T12:09:39.758Z,50.1991
2023-05-24T12:10:41.991Z,50.2482
2023-05-24T12:11:43.870Z,50.5098
2023-05-24T12:12:46.335Z,50.5409
2023-05-24T12:13:47.917Z,50.4229
2023-05-24T12:14:49.932Z,50.4582
2023-05-24T12:15:54.897Z,50.4226
2023-05-24T12:16:54.043Z,50.3974
2023-05-24T12:17:56.719Z,50.7496
2023-05-24T12:19:05.348Z,51.1464
2023-05-24T12:20:00.315Z,50.6203
2023-05-24T12:21:02.237Z,50.6897
2023-05-24T12:22:04.284Z,50.3725
2023-05-24T12:23:06.317Z,49.9184
2023-05-24T12:24:08.418Z,49.5209
2023-05-24T12:25:10.465Z,49.5295
2023-05-24T12:26:12.448Z,49.6671
2023-05-24T12:27:14.529Z,49.5540
2023-05-24T12:28:16.554Z,49.5067
2023-05-24T12:29:18.805Z,49.4862
2023-05-24T12:30:20.642Z,49.7088
2023-05-24T12:31:22.697Z,49.7240
2023-05-24T12:32:24.791Z,49.5797
2023-05-24T12:33:26.781Z,49.5599
2023-05-24T12:34:28.847Z,49.7969
2023-05-24T12:35:30.884Z,49.7669
2023-05-24T12:36:32.941Z,50.0170
2023-05-24T12:37:34.950Z,50.1420
2023-05-24T12:38:37.009Z,49.9749
2023-05-24T12:39:39.141Z,50.1097
2023-05-24T12:40:41.354Z,50.3906
2023-05-24T12:41:43.239Z,50.3612
2023-05-24T12:42:45.335Z,50.5715
2023-05-24T12:43:47.314Z,50.7447
2023-05-24T12:44:49.377Z,50.4311
2023-05-24T12:45:53.604Z,50.5790
2023-05-24T12:46:53.539Z,50.9368
2023-05-24T12:47:55.526Z,51.2303
2023-05-24T12:48:57.545Z,51.3279
2023-05-24T12:49:59.732Z,51.2711
2023-05-24T12:51:01.697Z,50.9901
2023-05-24T12:52:03.693Z,50.9559
2023-05-24T12:53:05.745Z,50.8067
2023-05-24T12:54:07.822Z,50.6326
2023-05-24T12:55:09.985Z,50.4088
2023-05-24T12:56:11.949Z,50.6577
2023-05-24T12:57:13.981Z,50.7335
2023-05-24T12:58:15.986Z,50.8503
2023-05-24T12:59:18.062Z,50.8334
2023-05-24T13:00:20.055Z,51.0425
2023-05-24T13:01:22.366Z,50.8029
2023-05-24T13:02:24.176Z,50.5750
2023-05-24T13:03:26.189Z,50.6509
2023-05-24T13:04:28.264Z,50.4041
2023-05-24T13:05:30.403Z,50.6436
2023-05-24T13:06:32.334Z,50.6806
2023-05-24T13:07:34.454Z,50.4743
2023-05-24T13:08:38.116Z,50.5535
2023-05-24T13:09:38.506Z,50.6408
2023-05-24T13:10:40.654Z,50.3854
2023-05-24T13:11:42.592Z,50.3740
2023-05-24T13:12:44.619Z,50.4248
2023-05-24T13:13:47.133Z,50.6999
2023-05-24T13:14:50.679Z,50.8502
2023-05-24T13:15:50.759Z,50.6536
2023-05-24T13:16:53.073Z,50.5229
2023-05-24T13:17:54.998Z,50.0861
2023-05-24T13:18:56.924Z,50.2908
2023-05-24T13:20:01.726Z,49.9356
2023-05-24T13:21:00.993Z,49.5779
2023-05-24T13:22:03.062Z,49.9902
2023-05-24T13:23:05.111Z,49.8827
2023-05-24T13:24:07.102Z,49.6379
2023-05-24T13:25:09.157Z,49.6221
2023-05-24T13:26:11.239Z,49.4081
2023-05-24T13:27:13.289Z,49.2039
2023-05-24T13:28:15.324Z,49.3494
2023-05-24T13:29:34.181Z,49.3886
2023-05-24T13:30:19.418Z,49.4827
2023-05-24T13:31:21.488Z,49.2889
2023-05-24T13:32:23.574Z,49.2929
2023-05-24T13:33:25.530Z,49.0378
2023-05-24T13:34:27.582Z,48.9883
2023-05-24T13:35:29.620Z,48.9150
2023-05-24T13:36:31.672Z,48.9019
2023-05-24T13:37:33.754Z,49.3042
2023-05-24T13:38:35.769Z,48.9860
2023-05-24T13:39:37.835Z,48.7124
2023-05-24T13:40:41.777Z,48.9120
2023-05-24T13:41:42.174Z,49.2856
2023-05-24T13:42:44.017Z,49.6498
2023-05-24T13:43:45.985Z,49.9611
2023-05-24T13:44:48.032Z,49.6945
2023-05-24T13:45:50.070Z,49.5943
2023-05-24T13:46:52.165Z,49.7399
2023-05-24T13:47:54.216Z,49.6552
2023-05-24T13:48:56.247Z,49.9258
2023-05-24T13:49:58.241Z,49.5440
2023-05-24T13:51:00.301Z,49.4067
2023-05-24T13:52:02.389Z,49.6316
2023-05-24T13:53:04.414Z,50.0583
2023-05-24T13:54:06.437Z,49.9881
2023-05-24T13:55:08.530Z,49.9860
2023-05-24T13:56:10.516Z,50.0872
2023-05-24T13:57:12.652Z,49.9874
2023-05-24T13:58:14.602Z,50.0530
2023-05-24T13:59:16.735Z,49.8382
2023-05-24T14:00:18.737Z,49.6105
2023-05-24T14:01:20.932Z,49.4845
2023-05-24T14:02:22.848Z,49.6229
2023-05-24T14:03:24.835Z,49.5121
2023-05-24T14:04:26.884Z,49.3607
2023-05-24T14:05:28.969Z,49.2544
2023-05-24T14:06:30.987Z,49.3945
2023-05-24T14:07:33.087Z,49.8745
2023-05-24T14:08:35.097Z,49.8728
2023-05-24T14:09:37.217Z,49.7499
2023-05-24T14:10:39.220Z,50.0521
2023-05-24T14:11:41.348Z,50.7436
2023-05-24T14:12:43.287Z,50.5887
2023-05-24T14:15:49.520Z,49.8456
2023-05-24T14:16:51.453Z,49.8620
2023-05-24T14:17:53.605Z,50.1333
2023-05-24T14:18:55.553Z,50.2374
2023-05-24T14:19:57.750Z,50.1746
2023-05-24T14:20:59.655Z,50.0416
2023-05-24T14:22:01.731Z,50.2382
2023-05-24T14:23:03.932Z,50.3359
2023-05-24T14:24:05.809Z,50.1947
2023-05-24T14:25:07.825Z,50.2994
2023-05-24T14:26:09.935Z,50.0031
2023-05-24T14:27:11.907Z,50.3371
2023-05-24T14:28:14.016Z,50.5079
2023-05-24T14:29:16.084Z,50.7382
2023-05-24T14:30:18.125Z,50.7798
2023-05-24T14:31:20.139Z,50.7702
2023-05-24T14:32:22.386Z,50.4747
2023-05-24T14:33:24.180Z,50.3673
2023-05-24T14:34:26.280Z,50.4210
2023-05-24T14:35:28.313Z,50.7273
2023-05-24T14:36:30.407Z,50.9142
2023-05-24T14:37:32.457Z,50.6646
2023-05-24T14:38:34.418Z,50.8872
2023-05-24T14:39:36.477Z,50.7112
2023-05-24T14:40:39.051Z,50.9589
2023-05-24T14:41:40.585Z,50.7203
2023-05-24T14:42:42.605Z,50.5292
2023-05-24T14:43:44.663Z,50.5441
2023-05-24T14:44:46.716Z,50.7127
2023-05-24T14:45:49.094Z,50.5216
2023-05-24T14:46:52.007Z,50.9654
2023-05-24T14:47:52.909Z,50.7573
2023-05-24T14:48:54.919Z,51.5548
2023-05-24T14:49:56.923Z,51.4784
2023-05-24T14:50:58.993Z,51.6371
2023-05-24T14:52:01.089Z,51.0176
2023-05-24T14:53:03.093Z,50.9626
2023-05-24T14:54:05.180Z,51.2322
2023-05-24T14:55:07.215Z,51.0879
2023-05-24T14:56:09.314Z,50.9489
2023-05-24T14:57:11.313Z,50.4403
2023-05-24T14:58:13.346Z,50.3929
2023-05-24T14:59:15.369Z,50.4017
2023-05-24T15:00:19.784Z,50.2889
2023-05-24T15:01:19.526Z,50.5349
2023-05-24T15:02:21.673Z,50.0313
2023-05-24T15:03:23.717Z,49.9349
2023-05-24T15:04:25.617Z,50.0808
2023-05-24T15:05:27.660Z,50.4862
2023-05-24T15:06:29.729Z,50.3083
2023-05-24T15:07:31.797Z,50.4207
2023-05-24T15:08:33.873Z,50.8178
2023-05-24T15:09:35.826Z,51.0016
2023-05-24T15:10:37.939Z,50.5893
2023-05-24T15:11:40.035Z,50.3381
2023-05-24T15:12:42.057Z,50.4557
2023-05-24T15:13:44.056Z,50.1314
2023-05-24T15:14:46.089Z,50.2657
2023-05-24T15:15:48.130Z,50.4469
2023-05-24T15:16:50.232Z,50.6763
2023-05-24T15:17:52.290Z,50.5398
2023-05-24T15:18:54.283Z,50.6543
2023-05-24T15:19:56.337Z,51.0100
2023-05-24T15:20:58.422Z,50.7061
2023-05-24T15:22:00.534Z,50.7969
2023-05-24T15:23:02.439Z,51.1275
2023-05-24T15:24:04.517Z,50.8299
2023-05-24T15:25:06.570Z,50.5378
2023-05-24T15:26:08.636Z,50.4764
2023-05-24T15:27:10.741Z,50.4447
2023-05-24T15:28:12.806Z,50.2436
2023-05-24T15:29:14.736Z,49.9533
2023-05-24T15:30:16.827Z,50.0188
2023-05-24T15:31:18.867Z,50.3597
2023-05-24T15:32:20.864Z,50.4787
2023-05-24T15:33:23.005Z,50.7497
2023-05-24T15:34:24.976Z,50.7546
2023-05-24T15:35:27.020Z,50.7152
2023-05-24T15:36:29.087Z,50.6895
2023-05-24T15:37:31.151Z,50.3488
2023-05-24T15:38:33.164Z,50.2718
2023-05-24T15:39:35.204Z,50.2640
2023-05-24T15:40:37.247Z,50.0941
2023-05-24T15:41:39.336Z,49.8903
2023-05-24T15:42:41.469Z,50.1787
2023-05-24T15:43:43.426Z,50.0711
2023-05-24T15:44:45.440Z,50.4189
2023-05-24T15:45:47.493Z,50.4531
2023-05-24T15:46:49.606Z,50.4740
2023-05-24T15:47:51.682Z,50.6560
2023-05-24T15:48:53.657Z,50.4648
2023-05-24T15:49:55.754Z,50.2845
2023-05-24T15:51:25.693Z,49.9483
2023-05-24T15:52:04.329Z,50.0323
2023-05-24T15:53:02.069Z,50.0674
2023-05-24T15:54:03.921Z,50.6522
2023-05-24T15:55:05.944Z,50.8650
2023-05-24T15:56:08.064Z,50.6014
2023-05-24T15:57:10.079Z,50.6402
2023-05-24T15:58:12.155Z,50.5407
2023-05-24T15:59:14.191Z,50.6618
2023-05-24T16:00:16.224Z,50.9359
2023-05-24T16:01:18.339Z,50.4598
2023-05-24T16:02:21.616Z,50.3381
2023-05-24T16:03:22.505Z,50.8147
2023-05-24T16:04:24.395Z,51.0603
2023-05-24T16:05:26.567Z,50.9851
2023-05-24T16:06:28.498Z,50.7706
2023-05-24T16:07:30.523Z,50.5901
2023-05-24T16:08:32.601Z,50.3591
2023-05-24T16:09:34.641Z,50.3352
2023-05-24T16:10:36.663Z,50.0429
2023-05-24T16:11:38.710Z,49.9555
2023-05-24T16:12:40.888Z,50.0971
2023-05-24T16:13:42.825Z,50.0003
2023-05-24T16:14:44.910Z,50.2433
2023-05-24T16:15:47.005Z,50.1072
2023-05-24T16:16:49.078Z,50.1436
2023-05-24T16:17:51.148Z,50.3174
2023-05-24T16:18:53.099Z,50.5139
2023-05-24T16:19:55.311Z,50.6080
2023-05-24T16:20:57.311Z,51.0047
2023-05-24T16:21:59.237Z,51.1062
2023-05-24T16:23:01.266Z,50.7459
2023-05-24T16:24:03.336Z,51.5148
2023-05-24T16:25:05.357Z,51.1839
2023-05-24T16:26:07.406Z,51.8862
2023-05-24T16:27:09.526Z,51.1047
2023-05-24T16:28:11.579Z,50.6314
2023-05-24T16:29:13.579Z,50.6094
2023-05-24T16:30:15.731Z,50.5107
2023-05-24T16:31:17.755Z,50.0896
2023-05-24T16:32:19.827Z,50.6315
2023-05-24T16:33:21.763Z,50.1565
2023-05-24T16:34:23.820Z,50.2978
2023-05-24T16:35:25.915Z,50.2353
2023-05-24T16:36:27.865Z,50.3421
2023-05-24T16:37:29.947Z,50.3306
2023-05-24T16:38:33.220Z,50.2501
2023-05-24T16:39:34.105Z,50.1505
2023-05-24T16:40:36.106Z,50.1799
2023-05-24T16:41:38.378Z,49.9756
2023-05-24T16:42:40.182Z,49.6433
2023-05-24T16:43:42.419Z,49.6588
2023-05-24T16:44:44.572Z,49.5401
2023-05-24T16:45:46.462Z,49.5221
2023-05-24T16:46:48.454Z,49.5140
2023-05-24T16:47:50.544Z,49.3322
2023-05-24T16:48:52.576Z,49.2193
2023-05-24T16:49:54.623Z,49.3746
2023-05-24T16:50:56.752Z,49.5496
2023-05-24T16:51:58.832Z,49.2382
2023-05-24T16:53:00.809Z,49.2699
2023-05-24T16:54:02.793Z,49.7022
2023-05-24T16:55:04.900Z,49.1036
2023-05-24T16:56:07.022Z,48.8099
2023-05-24T16:57:09.243Z,48.7898
2023-05-24T16:58:11.002Z,48.6834
2023-05-24T16:59:13.273Z,49.6516
2023-05-24T17:00:15.106Z,49.2352
2023-05-24T17:01:17.191Z,49.5892
2023-05-24T17:02:19.189Z,49.8038
2023-05-24T17:03:21.330Z,49.5626